Time;durP1;ratioP1;P1;durP2;ratioP2;P2;SDS_P1;SDS_P2;PMS_P1;PMS_P2;Temp;Humidity;BMP_temperature;BMP_pressure;BME280_temperature;BME280_humidity;BME280_pressure;Samples;Min_cycle;Max_cycle;Signal;HPM_P1;HPM_P2
2022/08/26 00:01:23;;;;;;;14.73;12.05;;;22.20;99.90;;;;;;4984835;28;20042;-57
2022/08/26 00:03:49;;;;;;;15.23;12.65;;;22.20;99.90;;;;;;4984463;28;20125;-57
2022/08/26 00:06:15;;;;;;;17.73;14.32;;;22.20;99.90;;;;;;4987801;28;20174;-57
2022/08/26 00:08:42;;;;;;;24.17;13.23;;;22.10;99.90;;;;;;4990769;28;20496;-57
2022/08/26 00:11:07;;;;;;;14.80;11.75;;;22.10;99.90;;;;;;4984281;28;20078;-58
2022/08/26 00:13:34;;;;;;;16.83;11.85;;;22.10;99.90;;;;;;4984943;28;20156;-57
2022/08/26 00:16:00;;;;;;;15.00;12.45;;;22.10;99.90;;;;;;4984004;28;20093;-57
2022/08/26 00:18:26;;;;;;;17.23;13.25;;;22.10;99.90;;;;;;4984241;28;20152;-57
2022/08/26 00:20:52;;;;;;;16.95;12.65;;;22.10;99.90;;;;;;4983323;28;20046;-57
2022/08/26 00:23:18;;;;;;;16.48;12.50;;;22.10;99.90;;;;;;4984282;28;20049;-58
2022/08/26 00:25:44;;;;;;;17.02;13.18;;;22.10;99.90;;;;;;4983440;28;20046;-58
2022/08/26 00:28:09;;;;;;;13.82;12.40;;;21.90;99.90;;;;;;4984367;28;20618;-61
2022/08/26 00:30:35;;;;;;;17.98;12.70;;;22.00;99.90;;;;;;4984324;28;20049;-58
2022/08/26 00:33:03;;;;;;;17.25;13.65;;;22.00;99.90;;;;;;4984018;28;20301;-57
2022/08/26 00:35:29;;;;;;;18.02;13.75;;;21.80;99.90;;;;;;4983009;28;20140;-57
2022/08/26 00:37:55;;;;;;;19.38;14.38;;;21.80;99.90;;;;;;4983850;28;20038;-57
2022/08/26 00:40:26;;;;;;;15.80;14.10;;;21.80;99.90;;;;;;4983948;28;20045;-57
2022/08/26 00:42:53;;;;;;;19.40;15.70;;;21.70;99.90;;;;;;4966435;28;20065;-56
2022/08/26 00:45:18;;;;;;;20.17;15.20;;;21.60;99.90;;;;;;4984085;28;20089;-57
2022/08/26 00:47:54;;;;;;;18.95;15.82;;;21.60;99.90;;;;;;4983402;28;20070;-57
2022/08/26 00:50:25;;;;;;;22.42;15.32;;;21.60;99.90;;;;;;4965298;28;20058;-57
2022/08/26 00:52:53;;;;;;;21.58;16.75;;;21.60;99.90;;;;;;4983550;28;20065;-57
2022/08/26 00:55:25;;;;;;;21.73;19.08;;;21.50;99.90;;;;;;4982604;28;20453;-57
2022/08/26 00:57:52;;;;;;;24.92;19.30;;;21.40;99.90;;;;;;4983404;28;20054;-57
2022/08/26 01:00:23;;;;;;;23.60;21.08;;;21.30;99.90;;;;;;4982806;28;20506;-57
2022/08/26 01:02:49;;;;;;;24.40;21.80;;;21.30;99.90;;;;;;5003906;23;20060;-57
2022/08/26 01:05:17;;;;;;;25.17;22.65;;;21.20;99.90;;;;;;5019349;28;20605;-57
2022/08/26 01:07:43;;;;;;;28.27;24.58;;;21.20;99.90;;;;;;5020774;28;20041;-57
2022/08/26 01:10:14;;;;;;;24.85;22.45;;;21.10;99.90;;;;;;5022498;28;20514;-57
2022/08/26 01:12:46;;;;;;;28.10;24.92;;;21.20;99.90;;;;;;5022509;28;20482;-57
2022/08/26 01:15:18;;;;;;;29.48;24.67;;;21.30;99.90;;;;;;5023008;28;20136;-58
2022/08/26 01:17:44;;;;;;;28.33;25.48;;;21.30;99.90;;;;;;5004262;28;20099;-57
2022/08/26 01:20:24;;;;;;;29.55;26.25;;;21.20;99.90;;;;;;5021880;28;20053;-56
2022/08/26 01:22:58;;;;;;;32.38;28.90;;;21.20;99.90;;;;;;5022168;28;20140;-57
2022/08/26 01:25:28;;;;;;;34.40;30.02;;;21.10;99.90;;;;;;5022357;28;20046;-56
2022/08/26 01:27:56;;;;;;;33.33;29.75;;;21.00;99.90;;;;;;5022154;28;20049;-56
2022/08/26 01:30:24;;;;;;;32.97;29.50;;;20.90;99.90;;;;;;5004762;28;20045;-57
2022/08/26 01:32:50;;;;;;;34.53;30.50;;;21.00;99.90;;;;;;5021360;28;20045;-57
2022/08/26 01:35:17;;;;;;;34.17;30.73;;;21.00;99.90;;;;;;5021469;28;20045;-57
2022/08/26 01:37:43;;;;;;;36.05;32.15;;;20.90;99.90;;;;;;5022298;28;20041;-57
2022/08/26 01:40:15;;;;;;;36.25;32.42;;;20.90;99.90;;;;;;5021579;28;20085;-57
2022/08/26 01:42:41;;;;;;;35.45;31.75;;;20.80;99.90;;;;;;5022121;28;20053;-56
2022/08/26 01:45:14;;;;;;;36.38;31.85;;;20.70;99.90;;;;;;5022190;28;20049;-57
2022/08/26 01:47:41;;;;;;;39.87;31.60;;;20.70;99.90;;;;;;5021462;28;20037;-57
2022/08/26 01:50:15;;;;;;;41.85;32.00;;;20.60;99.90;;;;;;5021219;28;20041;-57
2022/08/26 01:52:43;;;;;;;38.40;31.52;;;20.70;99.90;;;;;;5021835;28;20057;-56
2022/08/26 01:55:13;;;;;;;42.33;32.65;;;20.60;99.90;;;;;;5021160;28;20488;-57
2022/08/26 01:57:39;;;;;;;40.20;32.50;;;20.70;99.90;;;;;;5021884;28;20037;-56
2022/08/26 02:00:09;;;;;;;38.63;32.50;;;20.60;99.90;;;;;;5021932;28;20060;-57
2022/08/26 02:02:35;;;;;;;38.33;31.58;;;20.60;99.90;;;;;;5020945;28;20068;-56
2022/08/26 02:05:05;;;;;;;42.15;32.25;;;20.60;99.90;;;;;;5003237;28;20061;-56
2022/08/26 02:07:32;;;;;;;43.28;32.88;;;20.70;99.90;;;;;;5021747;28;20096;-57
2022/08/26 02:09:58;;;;;;;35.80;30.00;;;20.80;99.90;;;;;;5003333;28;20080;-57
2022/08/26 02:12:25;;;;;;;34.70;30.17;;;20.70;99.90;;;;;;5021776;28;20506;-57
2022/08/26 02:14:54;;;;;;;37.55;31.00;;;20.80;99.90;;;;;;5021502;28;20049;-56
2022/08/26 02:17:27;;;;;;;39.00;32.17;;;20.70;99.90;;;;;;5021339;28;20391;-57
2022/08/26 02:19:53;;;;;;;41.97;29.45;;;20.70;99.90;;;;;;5020954;28;20053;-57
2022/08/26 02:22:20;;;;;;;34.78;30.58;;;20.60;99.90;;;;;;5021795;28;20050;-57
2022/08/26 02:24:51;;;;;;;42.92;30.95;;;20.60;99.90;;;;;;5020954;28;20041;-56
2022/08/26 02:27:20;;;;;;;43.20;30.92;;;20.60;99.90;;;;;;5021931;28;20068;-57
2022/08/26 02:30:06;;;;;;;42.00;30.42;;;20.70;99.90;;;;;;5020975;28;20045;-56
2022/08/26 02:32:31;;;;;;;39.90;29.63;;;20.70;99.90;;;;;;5021788;28;20045;-58
2022/08/26 02:34:57;;;;;;;42.63;30.25;;;20.70;99.90;;;;;;5020429;28;20520;-57
2022/08/26 02:37:29;;;;;;;38.08;30.75;;;20.70;99.90;;;;;;5021595;28;20034;-57
2022/08/26 02:39:54;;;;;;;42.35;31.15;;;20.70;99.90;;;;;;5021190;28;20041;-57
2022/08/26 02:42:20;;;;;;;46.40;31.30;;;20.70;99.90;;;;;;5021568;28;20045;-57
2022/08/26 02:44:46;;;;;;;40.22;29.42;;;20.70;99.90;;;;;;5020321;28;20053;-57
2022/08/26 02:47:13;;;;;;;39.83;29.77;;;20.70;99.90;;;;;;5020897;28;20076;-57
2022/08/26 02:49:41;;;;;;;44.20;29.08;;;20.70;99.90;;;;;;5020558;28;20091;-57
2022/08/26 02:52:07;;;;;;;39.30;29.65;;;20.60;99.90;;;;;;5021670;28;20041;-57
2022/08/26 02:54:33;;;;;;;41.08;30.10;;;20.60;99.90;;;;;;5021047;28;20506;-57
2022/08/26 02:56:59;;;;;;;41.70;30.00;;;20.60;99.90;;;;;;5021251;28;20044;-57
2022/08/26 02:59:25;;;;;;;40.03;31.13;;;20.60;99.90;;;;;;5021459;28;20053;-57
2022/08/26 03:01:51;;;;;;;40.00;29.05;;;20.60;99.90;;;;;;5020074;28;20053;-57
2022/08/26 03:04:17;;;;;;;43.83;30.40;;;20.60;99.90;;;;;;5036183;28;20053;-57
2022/08/26 03:06:42;;;;;;;49.22;32.80;;;20.70;99.90;;;;;;5026274;28;20077;-57
2022/08/26 03:09:08;;;;;;;45.30;30.58;;;20.70;99.90;;;;;;5021553;28;20499;-57
2022/08/26 03:11:35;;;;;;;43.03;29.55;;;20.60;99.90;;;;;;5020748;28;20151;-57
2022/08/26 03:14:02;;;;;;;44.22;30.27;;;20.70;99.90;;;;;;5021445;28;20120;-56
2022/08/26 03:16:31;;;;;;;44.58;31.23;;;20.70;99.90;;;;;;5021206;28;20111;-57
2022/08/26 03:18:58;;;;;;;44.72;29.08;;;20.70;99.90;;;;;;5020382;28;20057;-57
2022/08/26 03:21:23;;;;;;;41.08;28.58;;;20.70;99.90;;;;;;5021209;28;20042;-57
2022/08/26 03:23:49;;;;;;;44.20;30.23;;;20.70;99.90;;;;;;5021781;28;20038;-57
2022/08/26 03:26:16;;;;;;;39.95;29.55;;;20.70;99.90;;;;;;5024493;28;20049;-57
2022/08/26 03:31:27;;;;;;;40.67;28.30;;;20.60;99.90;;;;;;5024682;28;20042;-56
2022/08/26 03:33:53;;;;;;;44.35;30.35;;;20.70;99.90;;;;;;5005422;28;20061;-57
2022/08/26 03:36:19;;;;;;;47.67;30.13;;;20.70;99.90;;;;;;5024219;28;20056;-57
2022/08/26 03:38:44;;;;;;;40.50;28.95;;;20.70;99.90;;;;;;5024141;28;20030;-57
2022/08/26 03:41:11;;;;;;;44.65;30.58;;;20.70;99.90;;;;;;5024419;28;20050;-57
2022/08/26 03:43:37;;;;;;;47.88;32.25;;;20.80;99.90;;;;;;5023590;28;20042;-56
2022/08/26 03:46:07;;;;;;;45.67;30.80;;;20.80;99.90;;;;;;5006902;28;20084;-57
2022/08/26 03:48:34;;;;;;;47.33;31.17;;;20.70;99.90;;;;;;5023910;28;20412;-57
2022/08/26 03:51:01;;;;;;;46.55;32.38;;;20.60;99.90;;;;;;5023564;28;20041;-57
2022/08/26 03:53:27;;;;;;;48.17;30.88;;;20.60;99.90;;;;;;5024025;28;20053;-55
2022/08/26 03:55:53;;;;;;;46.08;31.58;;;20.70;99.90;;;;;;5023775;28;20046;-56
2022/08/26 03:58:19;;;;;;;45.55;33.33;;;20.70;99.90;;;;;;5006166;28;20042;-56
2022/08/26 04:00:45;;;;;;;47.03;31.75;;;20.60;99.90;;;;;;5023610;28;20042;-55
2022/08/26 04:03:13;;;;;;;50.78;33.22;;;20.80;99.90;;;;;;4998991;28;20061;-57
2022/08/26 04:05:39;;;;;;;48.63;32.40;;;20.80;99.90;;;;;;5002720;28;20417;-57
2022/08/26 04:08:04;;;;;;;49.50;32.50;;;20.80;99.90;;;;;;5003657;28;20034;-58
2022/08/26 04:10:31;;;;;;;52.00;31.83;;;20.80;99.90;;;;;;5004672;28;20507;-57
2022/08/26 04:12:58;;;;;;;48.28;32.35;;;20.80;99.90;;;;;;5003847;28;20137;-57
2022/08/26 04:15:24;;;;;;;48.47;33.42;;;20.90;99.90;;;;;;5003273;28;20060;-56
2022/08/26 04:17:49;;;;;;;48.10;34.15;;;20.80;99.90;;;;;;4986419;28;20124;-57
2022/08/26 04:20:17;;;;;;;49.13;33.10;;;20.80;99.90;;;;;;5003477;28;20108;-57
2022/08/26 04:22:44;;;;;;;47.72;32.13;;;20.70;99.90;;;;;;5003435;28;20046;-56
2022/08/26 04:25:11;;;;;;;46.28;31.02;;;20.70;99.90;;;;;;5003256;28;20042;-57
2022/08/26 04:27:37;;;;;;;47.28;31.30;;;20.80;99.90;;;;;;5003717;28;20054;-57
2022/08/26 04:30:04;;;;;;;44.83;31.65;;;20.90;99.90;;;;;;5003767;28;20038;-57
2022/08/26 04:32:29;;;;;;;42.97;30.88;;;20.90;99.90;;;;;;5002904;28;20049;-57
2022/08/26 04:34:55;;;;;;;43.92;30.25;;;20.80;99.90;;;;;;5001698;28;20111;-56
2022/08/26 04:37:21;;;;;;;42.03;29.83;;;20.90;99.90;;;;;;5003586;28;20049;-57
2022/08/26 04:39:53;;;;;;;49.88;29.90;;;20.80;99.90;;;;;;5003456;28;20480;-57
2022/08/26 04:42:18;;;;;;;50.33;29.55;;;20.90;99.90;;;;;;5003710;28;20471;-57
2022/08/26 04:44:44;;;;;;;45.22;29.02;;;20.90;99.90;;;;;;5002968;28;20088;-57
2022/08/26 04:47:10;;;;;;;47.00;28.05;;;20.90;99.90;;;;;;5003572;28;20066;-57
2022/08/26 04:49:37;;;;;;;40.72;26.60;;;21.00;99.90;;;;;;5002061;28;20502;-57
2022/08/26 04:52:03;;;;;;;39.95;26.95;;;20.90;99.90;;;;;;4985799;28;20112;-57
2022/08/26 04:54:29;;;;;;;43.83;26.65;;;20.90;99.90;;;;;;5003301;28;20081;-56
2022/08/26 04:56:55;;;;;;;39.42;26.33;;;21.00;99.90;;;;;;4985357;28;20526;-56
2022/08/26 04:59:20;;;;;;;37.20;25.73;;;21.00;99.90;;;;;;5003485;28;20129;-57
2022/08/26 05:01:50;;;;;;;40.15;24.17;;;21.00;99.90;;;;;;5003205;28;20061;-57
2022/08/26 05:04:18;;;;;;;33.33;23.48;;;21.10;99.90;;;;;;5018261;28;20399;-57
2022/08/26 05:06:44;;;;;;;33.92;24.75;;;21.30;99.90;;;;;;5021577;28;20396;-57
2022/08/26 05:09:11;;;;;;;38.70;24.70;;;21.10;99.90;;;;;;5023048;28;20033;-57
2022/08/26 05:11:37;;;;;;;34.17;23.75;;;21.10;99.90;;;;;;5004843;28;20060;-55
2022/08/26 05:14:04;;;;;;;35.58;24.40;;;21.00;99.90;;;;;;5022026;28;20038;-57
2022/08/26 05:16:30;;;;;;;35.17;22.98;;;21.10;99.90;;;;;;5022808;28;20045;-57
2022/08/26 05:18:56;;;;;;;37.88;23.60;;;21.10;99.90;;;;;;5003838;28;20494;-57
2022/08/26 05:21:25;;;;;;;33.72;24.65;;;21.20;99.90;;;;;;5022165;28;20060;-57
2022/08/26 05:23:51;;;;;;;34.67;24.40;;;21.20;99.90;;;;;;5021951;28;20084;-57
2022/08/26 05:26:23;;;;;;;40.75;24.58;;;21.10;99.90;;;;;;5022458;28;20049;-57
2022/08/26 05:28:49;;;;;;;42.33;23.92;;;21.10;99.90;;;;;;5004563;28;20057;-56
2022/08/26 05:31:18;;;;;;;32.92;22.10;;;21.00;99.90;;;;;;5022225;28;20467;-57
2022/08/26 05:33:44;;;;;;;35.90;23.88;;;21.10;99.90;;;;;;5021188;28;20050;-56
2022/08/26 05:36:14;;;;;;;35.30;23.95;;;21.10;99.90;;;;;;5022205;28;20629;-57
2022/08/26 05:38:40;;;;;;;41.22;25.15;;;21.10;99.90;;;;;;5021533;28;20102;-56
2022/08/26 05:41:17;;;;;;;35.65;24.00;;;21.10;99.90;;;;;;5022173;28;20049;-58
2022/08/26 05:43:43;;;;;;;38.65;25.40;;;21.10;99.90;;;;;;5022128;28;20043;-56
2022/08/26 05:46:09;;;;;;;40.30;25.95;;;21.10;99.90;;;;;;5021079;28;20037;-57
2022/08/26 05:48:35;;;;;;;36.70;23.60;;;21.10;99.90;;;;;;5021437;28;20125;-57
2022/08/26 05:51:04;;;;;;;37.90;24.73;;;21.20;99.90;;;;;;5022286;28;20136;-57
2022/08/26 05:53:31;;;;;;;38.55;25.23;;;21.20;99.90;;;;;;5021880;28;20389;-56
2022/08/26 05:55:57;;;;;;;35.88;23.50;;;21.20;99.90;;;;;;5003937;28;20425;-57
2022/08/26 05:58:23;;;;;;;33.88;22.75;;;21.10;99.90;;;;;;5004058;28;20042;-57
2022/08/26 06:01:02;;;;;;;35.95;22.77;;;21.40;99.90;;;;;;5021541;28;20049;-56
2022/08/26 06:03:28;;;;;;;38.53;23.63;;;21.40;99.90;;;;;;5020890;28;20053;-57
2022/08/26 06:05:54;;;;;;;32.20;23.45;;;21.40;99.90;;;;;;5021033;28;20336;-56
2022/08/26 06:08:20;;;;;;;34.58;23.80;;;21.40;99.90;;;;;;5021086;28;20140;-56
2022/08/26 06:10:48;;;;;;;34.33;23.60;;;21.40;99.90;;;;;;5003650;28;20167;-57
2022/08/26 06:13:17;;;;;;;38.33;23.08;;;21.40;99.90;;;;;;5020493;28;20033;-56
2022/08/26 06:15:47;;;;;;;40.00;24.65;;;21.40;99.90;;;;;;5020754;28;20041;-56
2022/08/26 06:18:15;;;;;;;38.83;24.35;;;21.40;99.90;;;;;;5020904;28;20041;-57
2022/08/26 06:20:43;;;;;;;35.10;23.30;;;21.30;99.90;;;;;;5021506;28;20122;-56
2022/08/26 06:25:58;;;;;;;36.85;22.52;;;21.40;99.90;;;;;;5021129;28;20061;-57
2022/08/26 06:28:24;;;;;;;32.78;22.33;;;21.40;99.90;;;;;;5021363;28;20046;-57
2022/08/26 06:30:51;;;;;;;37.42;23.85;;;21.40;99.90;;;;;;5019700;28;20053;-57
2022/08/26 06:33:18;;;;;;;33.53;23.15;;;21.40;99.90;;;;;;5020515;28;20053;-57
2022/08/26 06:35:47;;;;;;;35.28;24.17;;;21.40;99.90;;;;;;5002466;28;20049;-57
2022/08/26 06:38:13;;;;;;;39.60;23.30;;;21.40;99.90;;;;;;5020578;28;20049;-57
2022/08/26 06:40:44;;;;;;;33.60;22.88;;;21.40;99.90;;;;;;5020645;28;20041;-56
2022/08/26 06:43:11;;;;;;;30.67;21.00;;;21.50;99.90;;;;;;5019418;28;20120;-57
2022/08/26 06:45:38;;;;;;;34.58;20.83;;;21.50;99.90;;;;;;5019940;28;20045;-57
2022/08/26 06:48:05;;;;;;;31.25;22.23;;;21.60;99.90;;;;;;5020533;28;20095;-56
2022/08/26 06:50:34;;;;;;;37.35;21.60;;;21.70;99.90;;;;;;5003303;28;20060;-57
2022/08/26 06:53:00;;;;;;;30.95;20.95;;;21.80;99.90;;;;;;5020192;28;20511;-57
2022/08/26 06:55:26;;;;;;;36.00;20.65;;;21.90;99.90;;;;;;5020624;28;20133;-58
2022/08/26 06:57:52;;;;;;;30.83;21.05;;;21.80;99.90;;;;;;5020352;28;20045;-58
2022/08/26 07:00:19;;;;;;;36.35;22.40;;;21.80;99.90;;;;;;5024678;28;20045;-57
2022/08/26 07:02:45;;;;;;;38.25;20.98;;;21.80;99.90;;;;;;5005111;28;20060;-57
2022/08/26 07:05:11;;;;;;;29.65;20.63;;;21.80;99.90;;;;;;5022309;28;20049;-58
2022/08/26 07:07:37;;;;;;;25.60;20.20;;;21.90;99.90;;;;;;5023582;28;20395;-58
2022/08/26 07:10:05;;;;;;;26.70;18.73;;;22.00;99.90;;;;;;5023484;28;20052;-58
2022/08/26 07:12:30;;;;;;;26.15;18.45;;;22.10;99.90;;;;;;5024555;28;20828;-58
2022/08/26 07:14:58;;;;;;;30.08;19.50;;;22.20;99.90;;;;;;5006555;28;20057;-58
2022/08/26 07:17:24;;;;;;;28.85;19.45;;;22.30;99.90;;;;;;5024716;28;20048;-58
2022/08/26 07:19:49;;;;;;;27.83;17.42;;;22.40;99.90;;;;;;5023280;28;20045;-56
2022/08/26 07:22:15;;;;;;;28.75;18.15;;;22.60;99.90;;;;;;5025023;28;20042;-54
2022/08/26 07:24:41;;;;;;;24.35;16.08;;;22.70;99.90;;;;;;5024479;28;20050;-58
2022/08/26 07:27:09;;;;;;;22.42;15.48;;;23.00;99.90;;;;;;5006229;28;20124;-59
2022/08/26 07:29:37;;;;;;;26.63;17.08;;;23.20;99.90;;;;;;5024143;28;20045;-58
2022/08/26 07:32:04;;;;;;;24.75;16.95;;;23.30;99.90;;;;;;5024760;28;20056;-57
2022/08/26 07:34:31;;;;;;;25.75;17.02;;;23.00;99.90;;;;;;5023661;28;20045;-58
2022/08/26 07:36:57;;;;;;;27.13;17.23;;;22.70;99.90;;;;;;5024023;28;20057;-58
2022/08/26 07:39:23;;;;;;;28.40;17.73;;;22.70;99.90;;;;;;5024361;28;20049;-58
2022/08/26 07:41:50;;;;;;;24.27;16.17;;;22.60;99.90;;;;;;5024306;28;20045;-57
2022/08/26 07:44:15;;;;;;;25.52;16.20;;;22.40;99.90;;;;;;5023471;28;20049;-57
2022/08/26 07:46:41;;;;;;;22.85;15.93;;;22.30;99.90;;;;;;5024084;28;20037;-58
2022/08/26 07:49:07;;;;;;;28.70;17.58;;;22.30;99.90;;;;;;5008940;28;20068;-58
2022/08/26 07:51:33;;;;;;;28.42;16.30;;;22.20;99.90;;;;;;4987406;28;20046;-58
2022/08/26 07:53:58;;;;;;;36.05;16.20;;;22.20;99.90;;;;;;4969955;28;20111;-57
2022/08/26 07:56:24;;;;;;;23.73;14.75;;;22.20;99.90;;;;;;5003927;28;20309;-57
2022/08/26 07:58:51;;;;;;;24.65;14.93;;;22.20;99.90;;;;;;5004199;28;20125;-58
2022/08/26 08:01:22;;;;;;;26.17;15.55;;;22.30;99.90;;;;;;5003500;28;20042;-58
2022/08/26 08:03:50;;;;;;;23.58;14.70;;;22.30;99.90;;;;;;5002925;28;20054;-57
2022/08/26 08:06:17;;;;;;;25.48;15.43;;;22.50;99.90;;;;;;5013850;28;20046;-58
2022/08/26 08:08:43;;;;;;;26.45;14.93;;;22.40;99.90;;;;;;5005247;28;20057;-58
2022/08/26 08:11:10;;;;;;;20.52;15.15;;;22.40;99.90;;;;;;5023584;28;20687;-58
2022/08/26 08:13:36;;;;;;;24.52;15.20;;;22.50;99.90;;;;;;5023407;28;20045;-58
2022/08/26 08:16:02;;;;;;;23.50;16.00;;;22.60;99.90;;;;;;5024051;28;20041;-57
2022/08/26 08:18:28;;;;;;;21.38;14.20;;;22.60;99.90;;;;;;5022116;28;20041;-58
2022/08/26 08:20:54;;;;;;;23.05;15.27;;;22.60;99.90;;;;;;5023665;28;20704;-58
2022/08/26 08:23:19;;;;;;;24.98;14.18;;;22.60;99.90;;;;;;5023081;28;20050;-58
2022/08/26 08:25:45;;;;;;;28.67;16.15;;;22.60;99.90;;;;;;5022766;28;20049;-57
2022/08/26 08:28:11;;;;;;;26.42;15.95;;;22.50;99.90;;;;;;5023702;28;20052;-58
2022/08/26 08:30:40;;;;;;;26.65;15.70;;;22.50;99.90;;;;;;5023355;28;20057;-57
2022/08/26 08:33:06;;;;;;;27.00;14.65;;;22.40;99.90;;;;;;5021334;28;20133;-57
2022/08/26 08:35:33;;;;;;;24.50;15.10;;;22.40;99.90;;;;;;5023707;28;20614;-57
2022/08/26 08:37:59;;;;;;;23.10;14.00;;;22.40;99.90;;;;;;5023047;28;20423;-58
2022/08/26 08:40:26;;;;;;;25.33;15.52;;;22.40;99.90;;;;;;5023550;28;20399;-58
2022/08/26 08:43:03;;;;;;;28.50;15.15;;;22.30;99.90;;;;;;5022294;28;20128;-57
2022/08/26 08:45:40;;;;;;;22.27;13.52;;;22.30;99.90;;;;;;5023008;28;20067;-58
2022/08/26 08:48:19;;;;;;;22.38;14.15;;;22.40;99.90;;;;;;5004392;28;20485;-58
2022/08/26 08:51:25;;;;;;;22.80;13.60;;;22.40;99.90;;;;;;5023189;28;20041;-57
2022/08/26 08:53:53;;;;;;;23.80;13.13;;;22.60;99.90;;;;;;5001297;28;20056;-57
2022/08/26 08:56:52;;;;;;;23.05;12.43;;;22.80;99.90;;;;;;5023010;28;20041;-59
2022/08/26 08:59:26;;;;;;;18.98;11.60;;;22.80;99.90;;;;;;4989303;28;20053;-59
2022/08/26 09:02:21;;;;;;;18.85;11.35;;;23.00;99.90;;;;;;5022413;28;20053;-57
2022/08/26 09:05:05;;;;;;;20.55;13.45;;;23.10;99.90;;;;;;5021786;28;20646;-58
2022/08/26 09:07:37;;;;;;;19.63;11.27;;;23.00;99.90;;;;;;5022826;28;20076;-58
2022/08/26 09:10:16;;;;;;;19.15;11.43;;;22.80;99.90;;;;;;5022936;28;20114;-58
2022/08/26 09:12:42;;;;;;;17.58;10.63;;;22.80;99.90;;;;;;5021968;28;20408;-58
2022/08/26 09:15:17;;;;;;;21.13;12.05;;;22.70;99.90;;;;;;5004720;28;20088;-58
2022/08/26 09:18:09;;;;;;;20.35;13.82;;;22.70;99.90;;;;;;5021684;28;20037;-57
2022/08/26 09:20:51;;;;;;;21.55;13.93;;;22.70;99.90;;;;;;5021922;28;20056;-57
2022/08/26 09:23:18;;;;;;;18.10;13.15;;;22.50;99.90;;;;;;5003531;28;20141;-57
2022/08/26 09:25:50;;;;;;;25.70;14.43;;;22.70;99.90;;;;;;5021631;28;20068;-57
2022/08/26 09:28:19;;;;;;;25.38;16.67;;;22.80;99.90;;;;;;5022279;28;20113;-56
2022/08/26 09:30:57;;;;;;;20.30;14.20;;;22.70;99.90;;;;;;5021422;28;20056;-56
2022/08/26 09:33:27;;;;;;;16.65;11.93;;;22.60;99.90;;;;;;5021401;28;20041;-57
2022/08/26 09:36:21;;;;;;;19.13;11.63;;;22.70;99.90;;;;;;5021981;28;20033;-57
2022/08/26 09:38:49;;;;;;;15.90;10.55;;;22.70;99.90;;;;;;5021639;28;20495;-57
2022/08/26 09:41:21;;;;;;;18.55;10.88;;;22.60;99.90;;;;;;5022185;28;20478;-57
2022/08/26 09:44:14;;;;;;;20.83;10.88;;;22.50;99.90;;;;;;5021767;28;20225;-57
2022/08/26 09:46:45;;;;;;;18.05;9.93;;;22.70;99.90;;;;;;5020782;28;20080;-57
2022/08/26 09:49:25;;;;;;;11.30;7.32;;;22.50;99.90;;;;;;5021204;28;20677;-57
2022/08/26 09:52:22;;;;;;;10.32;6.50;;;22.50;99.90;;;;;;5021696;28;20076;-57
2022/08/26 09:55:19;;;;;;;10.85;6.65;;;22.70;99.90;;;;;;5021130;28;20045;-58
2022/08/26 09:57:44;;;;;;;10.00;6.00;;;22.70;99.90;;;;;;5021547;28;20120;-58
2022/08/26 10:00:30;;;;;;;10.38;6.40;;;22.80;99.90;;;;;;5021868;28;20552;-57
2022/08/26 10:02:59;;;;;;;9.75;5.70;;;23.00;99.90;;;;;;5020363;28;20076;-58
2022/08/26 10:05:39;;;;;;;8.82;5.57;;;23.10;99.90;;;;;;5020970;28;20046;-58
2022/08/26 10:08:31;;;;;;;8.95;5.38;;;23.40;99.90;;;;;;5017787;28;20052;-59
2022/08/26 10:11:00;;;;;;;12.13;6.10;;;23.70;99.90;;;;;;5021618;28;20424;-58
2022/08/26 10:13:26;;;;;;;12.20;5.60;;;23.70;99.90;;;;;;5021175;28;20063;-58
2022/08/26 10:16:18;;;;;;;10.65;5.80;;;23.70;99.90;;;;;;5021480;28;20045;-57
2022/08/26 10:19:02;;;;;;;8.95;5.65;;;23.80;99.90;;;;;;5002625;28;20979;-58
2022/08/26 10:21:49;;;;;;;13.48;5.28;;;23.60;99.90;;;;;;5021145;28;20041;-56
2022/08/26 10:24:30;;;;;;;12.60;5.32;;;23.50;99.90;;;;;;5021584;28;20110;-52
2022/08/26 10:27:21;;;;;;;11.23;4.65;;;23.20;99.90;;;;;;5021379;28;20412;-54
2022/08/26 10:29:50;;;;;;;12.90;4.38;;;22.90;99.90;;;;;;5021346;28;20037;-54
2022/08/26 10:32:39;;;;;;;12.63;4.55;;;22.80;99.90;;;;;;5021591;28;20037;-53
2022/08/26 10:35:09;;;;;;;14.75;5.22;;;22.80;99.90;;;;;;5022579;28;20099;-53
2022/08/26 10:38:06;;;;;;;11.02;4.55;;;22.50;99.90;;;;;;5011557;28;20125;-59
2022/08/26 10:40:48;;;;;;;11.77;4.60;;;22.50;99.90;;;;;;5016613;28;20059;-56
2022/08/26 10:43:34;;;;;;;11.00;4.18;;;22.60;99.90;;;;;;5024258;28;20046;-54
2022/08/26 10:46:03;;;;;;;10.70;4.07;;;22.70;99.90;;;;;;5025212;28;20048;-55
2022/08/26 10:48:46;;;;;;;12.55;4.22;;;22.60;99.90;;;;;;5023471;28;20121;-53
2022/08/26 10:51:15;;;;;;;12.75;4.50;;;22.60;99.90;;;;;;5024746;28;20045;-54
2022/08/26 10:53:46;;;;;;;11.05;3.97;;;22.80;99.90;;;;;;5024104;28;20057;-53
2022/08/26 10:56:45;;;;;;;8.40;3.08;;;22.70;99.90;;;;;;5024429;28;20045;-54
2022/08/26 10:59:32;;;;;;;9.80;3.50;;;22.60;99.90;;;;;;5024038;28;20504;-55
2022/08/26 11:02:14;;;;;;;9.95;3.28;;;22.60;99.90;;;;;;5024415;28;20048;-53
2022/08/26 11:04:51;;;;;;;7.35;3.28;;;22.40;99.90;;;;;;5023500;28;20412;-54
2022/08/26 11:07:39;;;;;;;8.73;2.90;;;22.50;99.90;;;;;;5023689;28;20503;-52
2022/08/26 11:10:07;;;;;;;9.35;3.60;;;22.70;99.90;;;;;;5024501;28;20124;-53
2022/08/26 11:12:36;;;;;;;12.98;3.25;;;22.80;99.90;;;;;;5024418;28;20057;-54
2022/08/26 11:15:07;;;;;;;9.13;3.40;;;22.50;99.90;;;;;;5024557;28;20133;-54
2022/08/26 11:17:45;;;;;;;8.57;3.47;;;22.50;99.90;;;;;;5029469;28;20037;-54
2022/08/26 11:20:39;;;;;;;9.05;3.08;;;22.40;99.90;;;;;;5027421;28;20056;-54
2022/08/26 11:23:25;;;;;;;6.65;3.10;;;22.30;99.90;;;;;;5024157;28;20069;-56
2022/08/26 11:26:00;;;;;;;8.82;3.40;;;22.30;99.90;;;;;;5009497;28;20150;-55
2022/08/26 11:28:44;;;;;;;10.80;3.75;;;22.30;99.90;;;;;;5024024;28;20046;-52
2022/08/26 11:31:39;;;;;;;9.32;3.65;;;22.30;99.90;;;;;;5023538;28;20049;-54
2022/08/26 11:34:11;;;;;;;8.15;3.20;;;22.20;99.90;;;;;;5023572;28;20057;-58
2022/08/26 11:36:46;;;;;;;14.13;3.80;;;22.30;99.90;;;;;;5023297;28;20404;-53
2022/08/26 11:39:23;;;;;;;10.20;4.43;;;22.40;99.90;;;;;;5022843;28;20134;-53
2022/08/26 11:41:52;;;;;;;12.52;4.70;;;22.40;99.90;;;;;;5022456;28;20736;-52
2022/08/26 11:44:21;;;;;;;11.00;5.00;;;22.30;99.90;;;;;;5003465;28;20046;-51
2022/08/26 11:46:58;;;;;;;13.35;4.43;;;22.40;99.90;;;;;;5003524;28;20054;-52
2022/08/26 11:49:27;;;;;;;12.55;5.53;;;22.50;99.90;;;;;;5002655;28;20104;-52
2022/08/26 11:52:07;;;;;;;10.48;5.60;;;22.50;99.90;;;;;;5002074;28;20566;-52
2022/08/26 11:54:33;;;;;;;12.65;5.53;;;22.50;99.90;;;;;;5003757;28;20451;-52
2022/08/26 11:56:58;;;;;;;10.10;4.75;;;22.40;99.90;;;;;;5002761;28;20050;-52
2022/08/26 11:59:32;;;;;;;11.25;5.10;;;22.40;99.90;;;;;;4985836;28;20700;-53
2022/08/26 12:01:59;;;;;;;12.10;5.03;;;22.50;99.90;;;;;;5003089;28;20053;-52
2022/08/26 12:04:32;;;;;;;11.88;4.78;;;22.50;99.90;;;;;;5002176;28;20053;-51
2022/08/26 12:06:59;;;;;;;10.85;5.07;;;22.70;99.90;;;;;;5018900;28;20626;-51
2022/08/26 12:09:29;;;;;;;11.00;5.00;;;22.70;99.90;;;;;;5022819;28;20121;-52
2022/08/26 12:12:15;;;;;;;13.88;5.32;;;22.90;99.90;;;;;;5022109;28;20221;-52
2022/08/26 12:14:41;;;;;;;11.60;6.13;;;23.20;99.90;;;;;;5022572;28;20111;-51
2022/08/26 12:17:32;;;;;;;14.75;6.13;;;23.10;99.90;;;;;;5021708;28;20041;-55
2022/08/26 12:19:58;;;;;;;11.45;5.10;;;23.10;99.90;;;;;;5019504;28;20057;-52
2022/08/26 12:22:34;;;;;;;10.98;4.78;;;23.00;99.90;;;;;;5021456;28;20265;-51
2022/08/26 12:25:06;;;;;;;12.50;4.80;;;23.00;99.90;;;;;;5003567;28;20409;-52
2022/08/26 12:27:40;;;;;;;15.40;5.13;;;22.80;99.90;;;;;;5004406;28;20038;-50
2022/08/26 12:30:08;;;;;;;;;;;22.70;99.90;;;;;;5022708;28;20056;-52
2022/08/26 12:32:37;;;;;;;12.88;4.18;;;22.70;99.90;;;;;;5007489;28;20008;-50
2022/08/26 12:35:06;;;;;;;9.98;4.13;;;22.50;99.90;;;;;;5015274;28;20148;-52
2022/08/26 12:37:36;;;;;;;12.82;4.07;;;22.50;99.90;;;;;;5021176;28;20049;-53
2022/08/26 12:40:26;;;;;;;13.30;4.28;;;22.30;99.90;;;;;;5022473;28;20514;-53
2022/08/26 12:42:52;;;;;;;11.88;4.85;;;22.50;99.90;;;;;;5021993;28;20049;-52
2022/08/26 12:45:41;;;;;;;10.77;4.35;;;22.40;99.90;;;;;;5022767;28;20146;-51
2022/08/26 12:48:25;;;;;;;16.45;5.10;;;22.50;99.90;;;;;;5021537;28;20060;-52
2022/08/26 12:50:52;;;;;;;13.00;4.65;;;22.60;99.90;;;;;;5022426;28;20098;-52
2022/08/26 12:53:28;;;;;;;12.70;4.32;;;22.60;99.90;;;;;;5022374;28;20049;-53